Time;durP1;ratioP1;P1;durP2;ratioP2;P2;SDS_P1;SDS_P2;PMS_P1;PMS_P2;Temp;Humidity;BMP_temperature;BMP_pressure;BME280_temperature;BME280_humidity;BME280_pressure;Samples;Min_cycle;Max_cycle;Signal;HPM_P1;HPM_P2
2023/05/23 00:01:06;;;;;;;18.80;16.70;;;;;;;15.79;100.00;100595.55;107438;1270;73357;-64
2023/05/23 00:03:33;;;;;;;19.80;16.00;;;;;;;15.76;100.00;100597.15;107390;1271;61463;-64
2023/05/23 00:06:01;;;;;;;21.10;18.20;;;;;;;15.74;100.00;100599.42;107390;1270;60113;-65
2023/05/23 00:08:27;;;;;;;19.50;17.30;;;;;;;15.74;100.00;100599.64;107093;1270;75098;-64
2023/05/23 00:10:54;;;;;;;20.50;17.80;;;;;;;15.74;100.00;100598.58;107262;1270;59415;-64
2023/05/23 00:13:20;;;;;;;20.90;18.40;;;;;;;15.74;100.00;100595.56;107421;1271;59648;-64
2023/05/23 00:15:47;;;;;;;20.20;17.80;;;;;;;15.76;100.00;100600.41;107231;1271;61503;-63
2023/05/23 00:18:15;;;;;;;22.20;18.90;;;;;;;15.79;100.00;100597.52;107411;1271;60145;-65
2023/05/23 00:20:42;;;;;;;22.20;18.30;;;;;;;15.82;100.00;100591.17;107388;1270;74394;-64
2023/05/23 00:23:09;;;;;;;21.10;17.90;;;;;;;15.84;100.00;100590.99;107420;1270;71458;-65
2023/05/23 00:25:36;;;;;;;22.00;18.30;;;;;;;15.88;100.00;100591.71;107379;1269;73422;-65
2023/05/23 00:28:03;;;;;;;22.20;18.90;;;;;;;15.91;100.00;100594.37;107405;1271;60886;-64
2023/05/23 00:30:32;;;;;;;20.50;17.60;;;;;;;15.94;100.00;100593.08;107467;1269;59504;-64
2023/05/23 00:32:59;;;;;;;23.70;19.50;;;;;;;15.96;100.00;100585.35;107407;1271;74118;-64
2023/05/23 00:35:26;;;;;;;23.60;19.80;;;;;;;16.01;100.00;100584.63;107401;1271;71270;-63
2023/05/23 00:37:54;;;;;;;22.10;17.50;;;;;;;16.04;100.00;100588.34;107395;1270;72878;-62
2023/05/23 00:40:21;;;;;;;20.00;17.60;;;;;;;16.04;100.00;100595.64;107203;1270;62685;-64
2023/05/23 00:42:48;;;;;;;22.50;18.80;;;;;;;16.08;100.00;100588.50;107371;1273;59698;-64
2023/05/23 00:45:15;;;;;;;24.10;18.30;;;;;;;16.11;100.00;100588.03;107385;1270;72855;-63
2023/05/23 00:47:44;;;;;;;20.70;18.30;;;;;;;16.13;100.00;100589.22;107395;1270;69844;-62
2023/05/23 00:50:13;;;;;;;22.00;18.40;;;;;;;16.15;100.00;100586.58;107226;1276;71069;-64
2023/05/23 00:52:40;;;;;;;22.20;18.00;;;;;;;16.17;100.00;100581.29;107161;1270;62202;-60
2023/05/23 00:55:08;;;;;;;21.50;18.30;;;;;;;16.17;100.00;100583.48;107973;1271;59198;-61
2023/05/23 00:57:39;;;;;;;21.60;18.20;;;;;;;16.20;100.00;100584.69;107482;1274;73524;-60
2023/05/23 01:00:14;;;;;;;22.80;18.70;;;;;;;16.21;100.00;100586.61;106060;1273;71290;-64
2023/05/23 01:02:45;;;;;;;23.20;18.60;;;;;;;16.21;100.00;100587.14;107029;1270;72383;-57
2023/05/23 01:05:16;;;;;;;25.90;22.10;;;;;;;16.19;100.00;100584.56;106353;1273;61967;-60
2023/05/23 01:07:46;;;;;;;25.20;21.80;;;;;;;16.19;100.00;100580.20;106274;1270;61363;-60
2023/05/23 01:10:14;;;;;;;30.70;25.10;;;;;;;16.18;100.00;100577.29;106128;1270;73500;-60
2023/05/23 01:13:02;;;;;;;32.00;27.00;;;;;;;16.16;100.00;100578.83;106769;1269;71311;-61
2023/05/23 01:15:55;;;;;;;36.80;28.50;;;;;;;16.17;100.00;100581.75;106379;1273;72416;-61
2023/05/23 01:18:47;;;;;;;38.40;31.10;;;;;;;16.09;100.00;100582.20;106244;1268;60490;-63
2023/05/23 01:21:18;;;;;;;43.50;35.00;;;;;;;16.02;100.00;100585.77;106273;1270;61336;-62
2023/05/23 01:24:43;;;;;;;40.70;32.20;;;;;;;15.97;100.00;100587.93;106291;1270;72534;-63
2023/05/23 01:27:23;;;;;;;40.60;32.70;;;;;;;15.85;100.00;100590.17;105694;1276;70007;-59
2023/05/23 01:29:55;;;;;;;43.80;36.00;;;;;;;15.77;100.00;100597.52;106130;1280;70649;-62
2023/05/23 01:32:25;;;;;;;49.30;38.20;;;;;;;15.70;100.00;100595.80;106078;1273;62091;-62
2023/05/23 01:34:53;;;;;;;48.00;38.00;;;;;;;15.65;100.00;100602.43;106743;1271;61253;-64
2023/05/23 01:37:20;;;;;;;50.20;39.40;;;;;;;15.61;100.00;100605.94;106415;1270;73176;-63
2023/05/23 01:39:46;;;;;;;48.90;37.70;;;;;;;15.57;100.00;100606.53;106019;1270;71288;-63
2023/05/23 01:42:13;;;;;;;44.90;35.20;;;;;;;15.48;100.00;100613.99;106464;1269;72716;-58
2023/05/23 01:44:40;;;;;;;38.30;31.20;;;;;;;15.34;100.00;100609.39;106721;1269;62281;-62
2023/05/23 01:47:08;;;;;;;41.40;31.20;;;;;;;15.21;100.00;100611.28;106779;1269;61309;-61
2023/05/23 01:49:36;;;;;;;37.10;29.00;;;;;;;15.12;100.00;100605.16;106338;1269;73462;-60
2023/05/23 01:52:04;;;;;;;37.70;28.70;;;;;;;15.03;100.00;100610.05;106460;1270;72503;-61
2023/05/23 01:54:34;;;;;;;36.60;26.60;;;;;;;14.95;100.00;100615.41;106275;1273;72765;-56
2023/05/23 01:57:01;;;;;;;39.30;28.00;;;;;;;14.88;100.00;100612.05;106281;1270;62139;-61
2023/05/23 01:59:28;;;;;;;35.20;25.90;;;;;;;14.84;100.00;100618.45;106381;1270;61741;-65
2023/05/23 02:01:55;;;;;;;40.90;28.90;;;;;;;14.79;100.00;100617.79;106608;1270;73952;-63
2023/05/23 02:04:21;;;;;;;33.50;26.60;;;;;;;14.76;100.00;100624.69;106934;1271;71136;-63
2023/05/23 02:06:48;;;;;;;33.50;24.60;;;;;;;14.69;100.00;100630.27;106272;1273;61192;-64
2023/05/23 02:09:15;;;;;;;28.10;23.30;;;;;;;14.64;100.00;100627.02;106755;1272;59108;-61
2023/05/23 02:11:41;;;;;;;31.80;23.60;;;;;;;14.61;100.00;100622.00;106314;1271;61287;-62
2023/05/23 02:14:08;;;;;;;29.40;23.30;;;;;;;14.58;100.00;100623.56;106438;1272;59354;-60
2023/05/23 02:16:35;;;;;;;27.00;22.60;;;;;;;14.56;100.00;100626.80;106237;1270;71755;-62
2023/05/23 02:19:02;;;;;;;27.30;21.40;;;;;;;14.54;100.00;100631.54;106573;1271;72779;-64
2023/05/23 02:21:30;;;;;;;26.10;21.40;;;;;;;14.50;100.00;100638.61;106487;1274;62195;-60
2023/05/23 02:24:00;;;;;;;24.30;21.00;;;;;;;14.45;100.00;100644.77;106589;1273;61350;-64
2023/05/23 02:26:27;;;;;;;25.90;21.60;;;;;;;14.42;100.00;100649.60;105887;1270;75599;-62
2023/05/23 02:28:53;;;;;;;24.40;20.50;;;;;;;14.41;100.00;100649.82;106452;1276;61217;-59
2023/05/23 02:31:20;;;;;;;23.10;19.50;;;;;;;14.39;100.00;100641.47;106569;1270;71615;-62
2023/05/23 02:33:47;;;;;;;21.90;18.10;;;;;;;14.38;100.00;100640.20;106010;1270;61615;-64
2023/05/23 02:36:13;;;;;;;20.90;17.50;;;;;;;14.34;100.00;100645.52;106605;1271;59474;-62
2023/05/23 02:38:40;;;;;;;20.80;18.60;;;;;;;14.32;100.00;100641.65;106826;1270;74489;-60
2023/05/23 02:41:06;;;;;;;18.90;16.90;;;;;;;14.34;100.00;100639.73;106607;1273;71252;-59
2023/05/23 02:43:33;;;;;;;18.80;16.60;;;;;;;14.31;100.00;100647.56;106260;1271;61146;-62
2023/05/23 02:45:59;;;;;;;20.50;16.30;;;;;;;14.27;100.00;100644.95;106268;1271;59939;-62
2023/05/23 02:48:26;;;;;;;20.30;16.80;;;;;;;14.26;100.00;100643.28;106427;1272;61373;-59
2023/05/23 02:50:53;;;;;;;22.10;17.10;;;;;;;14.28;100.00;100640.58;106683;1270;75201;-61
2023/05/23 02:53:19;;;;;;;19.40;17.10;;;;;;;14.27;100.00;100645.71;106285;1269;61279;-60
2023/05/23 02:55:46;;;;;;;22.00;17.90;;;;;;;14.24;100.00;100645.59;106375;1270;73015;-63
2023/05/23 02:58:12;;;;;;;22.10;17.90;;;;;;;14.22;100.00;100646.92;106681;1270;61721;-62
2023/05/23 03:00:39;;;;;;;21.30;18.30;;;;;;;14.19;100.00;100645.10;106251;1270;61246;-62
2023/05/23 03:03:05;;;;;;;21.60;18.00;;;;;;;14.17;100.00;100645.63;106236;1270;61125;-60
2023/05/23 03:05:32;;;;;;;18.90;16.90;;;;;;;14.17;100.00;100648.83;106335;1270;70327;-63
2023/05/23 03:07:59;;;;;;;18.30;15.30;;;;;;;14.13;100.00;100652.89;106447;1276;59309;-61
2023/05/23 03:10:25;;;;;;;18.80;14.90;;;;;;;14.09;100.00;100650.16;106387;1273;61304;-60
2023/05/23 03:12:52;;;;;;;17.80;15.20;;;;;;;14.09;100.00;100647.16;106318;1270;61195;-59
2023/05/23 03:15:19;;;;;;;19.30;15.60;;;;;;;14.06;100.00;100648.02;106897;1270;72618;-62
2023/05/23 03:17:45;;;;;;;21.20;16.40;;;;;;;14.06;100.00;100646.77;106441;1270;69514;-60
2023/05/23 03:20:13;;;;;;;20.00;16.60;;;;;;;14.04;100.00;100644.88;106325;1270;71762;-63
2023/05/23 03:22:42;;;;;;;20.20;16.50;;;;;;;14.04;100.00;100641.19;106141;1270;61199;-61
2023/05/23 03:25:08;;;;;;;18.60;16.00;;;;;;;14.05;100.00;100640.00;106903;1269;61352;-61
2023/05/23 03:27:35;;;;;;;19.70;16.20;;;;;;;14.05;100.00;100638.98;106609;1270;74304;-62
2023/05/23 03:30:03;;;;;;;18.30;15.70;;;;;;;14.04;100.00;100634.50;106374;1270;70588;-61
2023/05/23 03:32:29;;;;;;;21.10;16.00;;;;;;;14.01;100.00;100636.48;106970;1270;70378;-59
2023/05/23 03:34:56;;;;;;;19.50;16.00;;;;;;;13.96;100.00;100634.96;106535;1270;61660;-62
2023/05/23 03:37:23;;;;;;;20.70;16.60;;;;;;;13.95;100.00;100628.95;106903;1270;61316;-63
2023/05/23 03:39:49;;;;;;;18.90;16.10;;;;;;;13.93;100.00;100635.55;106100;1275;73926;-63
2023/05/23 03:42:16;;;;;;;21.10;15.90;;;;;;;13.89;100.00;100630.71;106480;1269;69744;-61
2023/05/23 03:44:43;;;;;;;19.60;15.90;;;;;;;13.89;100.00;100634.84;106219;1270;71737;-61
2023/05/23 03:47:09;;;;;;;21.40;16.70;;;;;;;13.90;100.00;100636.94;106321;1269;61215;-61
2023/05/23 03:49:36;;;;;;;21.70;16.30;;;;;;;13.89;100.00;100637.30;106882;1270;59214;-58
2023/05/23 03:52:03;;;;;;;20.80;16.30;;;;;;;13.87;100.00;100639.64;106220;1270;73246;-62
2023/05/23 03:54:29;;;;;;;20.20;17.00;;;;;;;13.91;100.00;100640.96;106764;1268;71158;-62
2023/05/23 03:56:56;;;;;;;19.10;15.30;;;;;;;13.92;100.00;100639.98;106439;1270;71932;-61
2023/05/23 03:59:23;;;;;;;20.70;16.60;;;;;;;13.90;100.00;100642.73;106012;1271;61277;-62
2023/05/23 04:01:49;;;;;;;21.60;16.60;;;;;;;13.90;100.00;100646.98;106295;1270;60100;-61
2023/05/23 04:04:17;;;;;;;19.60;17.00;;;;;;;13.92;100.00;100646.95;106493;1269;60090;-63
2023/05/23 04:06:43;;;;;;;17.80;15.40;;;;;;;13.92;100.00;100650.61;106708;1274;70197;-63
2023/05/23 04:09:10;;;;;;;21.80;17.00;;;;;;;13.92;100.00;100649.52;106450;1270;72427;-62
2023/05/23 04:11:36;;;;;;;19.50;15.30;;;;;;;13.98;100.00;100654.17;106428;1270;62420;-61
2023/05/23 04:14:03;;;;;;;18.00;15.70;;;;;;;14.00;100.00;100649.63;106595;1270;59552;-63
2023/05/23 04:16:31;;;;;;;17.70;14.40;;;;;;;14.00;100.00;100658.52;106406;1270;61249;-60
2023/05/23 04:18:59;;;;;;;18.30;14.60;;;;;;;14.03;100.00;100654.02;106543;1270;70858;-62
2023/05/23 04:21:25;;;;;;;17.70;13.70;;;;;;;14.07;100.00;100649.94;106408;1273;73059;-59
2023/05/23 04:23:52;;;;;;;17.30;14.60;;;;;;;14.10;100.00;100649.75;106691;1270;59777;-61
2023/05/23 04:26:19;;;;;;;17.90;14.10;;;;;;;14.14;100.00;100650.91;106234;1269;61217;-62
2023/05/23 04:28:47;;;;;;;18.00;14.70;;;;;;;14.15;100.00;100647.80;106575;1270;74982;-62
2023/05/23 04:31:14;;;;;;;18.50;14.10;;;;;;;14.17;100.00;100652.84;106713;1270;71348;-65
2023/05/23 04:33:40;;;;;;;15.30;12.90;;;;;;;14.15;100.00;100651.16;106286;1270;71789;-64
2023/05/23 04:36:08;;;;;;;15.40;11.60;;;;;;;14.11;100.00;100653.61;106262;1269;60986;-65
2023/05/23 04:38:37;;;;;;;12.30;10.60;;;;;;;14.11;100.00;100652.42;106436;1270;61337;-67
2023/05/23 04:41:05;;;;;;;13.50;11.10;;;;;;;14.12;100.00;100654.11;106740;1269;73561;-65
2023/05/23 04:43:32;;;;;;;14.00;10.80;;;;;;;14.10;100.00;100655.70;106672;1270;71048;-65
2023/05/23 04:45:59;;;;;;;13.40;10.00;;;;;;;14.10;100.00;100655.95;106472;1273;72890;-63
2023/05/23 04:48:26;;;;;;;14.20;11.20;;;;;;;14.12;100.00;100654.48;106395;1270;61158;-65
2023/05/23 04:50:55;;;;;;;14.70;11.00;;;;;;;14.13;100.00;100653.41;106777;1270;59543;-63
2023/05/23 04:53:22;;;;;;;12.30;10.10;;;;;;;14.14;100.00;100650.79;106591;1270;74832;-63
2023/05/23 04:55:48;;;;;;;12.50;9.20;;;;;;;14.10;100.00;100652.17;106444;1270;71118;-64
2023/05/23 04:58:15;;;;;;;12.90;10.20;;;;;;;14.05;100.00;100648.00;106814;1269;71588;-65
2023/05/23 05:00:41;;;;;;;13.70;11.00;;;;;;;14.05;100.00;100649.98;106628;1269;61800;-65
2023/05/23 05:03:09;;;;;;;16.00;10.60;;;;;;;14.05;100.00;100651.73;106415;1274;61828;-64
2023/05/23 05:05:36;;;;;;;14.30;11.30;;;;;;;14.05;100.00;100654.27;106700;1270;73554;-65
2023/05/23 05:08:02;;;;;;;14.50;11.20;;;;;;;14.07;100.00;100649.04;106533;1270;71274;-65
2023/05/23 05:10:29;;;;;;;14.10;10.80;;;;;;;14.07;100.00;100653.34;106630;1271;61229;-65
2023/05/23 05:12:55;;;;;;;12.70;9.20;;;;;;;14.09;100.00;100650.04;106145;1273;61376;-65
2023/05/23 05:15:22;;;;;;;13.00;9.70;;;;;;;14.08;100.00;100652.75;106913;1269;61377;-64
2023/05/23 05:17:49;;;;;;;12.00;9.20;;;;;;;14.06;100.00;100645.77;106321;1269;74617;-64
2023/05/23 05:20:16;;;;;;;11.50;8.40;;;;;;;14.01;100.00;100648.84;106459;1269;71046;-66
2023/05/23 05:22:43;;;;;;;13.50;9.40;;;;;;;13.97;100.00;100658.88;106336;1271;71978;-66
2023/05/23 05:25:10;;;;;;;14.30;9.60;;;;;;;13.94;100.00;100653.38;106421;1270;63303;-65
2023/05/23 05:27:36;;;;;;;13.10;9.50;;;;;;;13.91;100.00;100655.23;106526;1270;61347;-64
2023/05/23 05:30:07;;;;;;;11.20;9.00;;;;;;;13.84;100.00;100654.80;106407;1269;75719;-64
2023/05/23 05:32:34;;;;;;;12.50;9.40;;;;;;;13.80;100.00;100660.27;106215;1270;69849;-64
2023/05/23 05:35:02;;;;;;;14.00;10.30;;;;;;;13.78;100.00;100660.15;106152;1276;70810;-64
2023/05/23 05:37:29;;;;;;;12.60;9.60;;;;;;;13.79;100.00;100662.08;106145;1276;61301;-64
2023/05/23 05:39:55;;;;;;;16.40;11.00;;;;;;;13.78;100.00;100665.23;106310;1269;61200;-64
2023/05/23 05:42:22;;;;;;;12.80;10.00;;;;;;;13.74;100.00;100662.49;106192;1270;61389;-64
2023/05/23 05:44:49;;;;;;;12.40;10.10;;;;;;;13.72;100.00;100665.48;106390;1270;61179;-63
2023/05/23 05:47:15;;;;;;;13.00;10.10;;;;;;;13.66;100.00;100662.58;106213;1270;72442;-65
2023/05/23 05:49:42;;;;;;;11.80;8.80;;;;;;;13.67;100.00;100666.36;106812;1269;62092;-64
2023/05/23 05:52:08;;;;;;;11.10;8.70;;;;;;;13.64;100.00;100661.86;106233;1269;61263;-62
2023/05/23 05:54:36;;;;;;;13.20;10.40;;;;;;;13.65;100.00;100658.84;106147;1270;73548;-65
2023/05/23 05:57:03;;;;;;;11.90;9.90;;;;;;;13.68;100.00;100661.56;105725;1270;70920;-64
2023/05/23 05:59:29;;;;;;;11.70;9.80;;;;;;;13.65;100.00;100663.52;105786;1270;72677;-65
2023/05/23 06:01:58;;;;;;;12.10;9.30;;;;;;;13.63;100.00;100661.17;106241;1270;62604;-64
2023/05/23 06:04:25;;;;;;;10.10;8.80;;;;;;;13.62;100.00;100661.48;105389;1270;61205;-66
2023/05/23 06:06:51;;;;;;;10.00;8.40;;;;;;;13.59;100.00;100662.41;105973;1270;73708;-65
2023/05/23 06:09:18;;;;;;;11.60;8.90;;;;;;;13.57;100.00;100666.98;105384;1270;71275;-67
2023/05/23 06:11:44;;;;;;;11.70;9.60;;;;;;;13.57;100.00;100667.73;105181;1270;71571;-66
2023/05/23 06:14:11;;;;;;;11.50;9.00;;;;;;;13.57;100.00;100667.85;105641;1270;61377;-65
2023/05/23 06:16:38;;;;;;;12.50;9.50;;;;;;;13.57;100.00;100665.23;105547;1270;61262;-64
2023/05/23 06:19:05;;;;;;;10.30;8.70;;;;;;;13.56;100.00;100668.13;105964;1269;73858;-65
2023/05/23 06:21:33;;;;;;;11.50;8.80;;;;;;;13.58;100.00;100663.85;105247;1270;70327;-65
2023/05/23 06:23:59;;;;;;;9.20;8.20;;;;;;;13.59;100.00;100665.61;106113;1270;73155;-64
2023/05/23 06:26:26;;;;;;;10.90;8.40;;;;;;;13.58;100.00;100665.07;105109;1270;62068;-65
2023/05/23 06:28:52;;;;;;;10.90;8.90;;;;;;;13.58;100.00;100663.98;105975;1269;59828;-64
2023/05/23 06:31:19;;;;;;;10.30;8.70;;;;;;;13.59;100.00;100661.95;105394;1273;73535;-66
2023/05/23 06:33:46;;;;;;;13.30;9.70;;;;;;;13.58;100.00;100664.58;105383;1270;70080;-65
2023/05/23 06:36:12;;;;;;;10.70;8.90;;;;;;;13.58;100.00;100673.59;105704;1270;61406;-66
2023/05/23 06:38:39;;;;;;;12.90;10.30;;;;;;;13.59;100.00;100669.25;105779;1270;61715;-65
2023/05/23 06:41:06;;;;;;;9.90;8.70;;;;;;;13.60;100.00;100670.52;105849;1270;61173;-64
2023/05/23 06:43:32;;;;;;;11.60;10.10;;;;;;;13.59;100.00;100670.08;105626;1273;74736;-66
2023/05/23 06:45:59;;;;;;;12.80;10.20;;;;;;;13.62;100.00;100666.56;105501;1269;70028;-66
2023/05/23 06:48:25;;;;;;;12.10;9.60;;;;;;;13.62;100.00;100675.19;105755;1270;71645;-64
2023/05/23 06:50:52;;;;;;;11.80;9.70;;;;;;;13.64;100.00;100677.16;105656;1271;61258;-66
2023/05/23 06:53:19;;;;;;;11.50;10.20;;;;;;;13.65;100.00;100676.59;105368;1270;61205;-66
2023/05/23 06:55:46;;;;;;;11.70;10.10;;;;;;;13.65;100.00;100686.05;105372;1272;61247;-66
2023/05/23 06:58:13;;;;;;;12.10;9.60;;;;;;;13.64;100.00;100684.00;106293;1269;69603;-67
2023/05/23 07:00:40;;;;;;;9.90;8.30;;;;;;;13.62;100.00;100693.30;105242;1270;71854;-64
2023/05/23 07:03:07;;;;;;;10.90;8.50;;;;;;;13.61;100.00;100685.34;105504;1271;62523;-63
2023/05/23 07:05:35;;;;;;;10.00;9.00;;;;;;;13.62;100.00;100688.10;105327;1273;61176;-65
2023/05/23 07:08:06;;;;;;;12.70;9.00;;;;;;;13.61;100.00;100691.16;105837;1270;73203;-68
2023/05/23 07:10:34;;;;;;;10.30;8.40;;;;;;;13.60;100.00;100695.25;105774;1269;61531;-67
2023/05/23 07:13:00;;;;;;;13.80;7.60;;;;;;;13.56;100.00;100701.42;107187;1270;71579;-69
2023/05/23 07:15:27;;;;;;;11.30;7.50;;;;;;;13.53;100.00;100695.55;106934;1270;60881;-69
2023/05/23 07:17:54;;;;;;;10.80;7.40;;;;;;;13.50;100.00;100698.14;106965;1270;59747;-70
2023/05/23 07:20:21;;;;;;;8.10;7.00;;;;;;;13.52;100.00;100696.80;106670;1270;74887;-69
2023/05/23 07:22:50;;;;;;;10.00;7.90;;;;;;;13.54;100.00;100701.98;106986;1270;72719;-68
2023/05/23 07:25:16;;;;;;;10.10;7.60;;;;;;;13.57;100.00;100700.22;106912;1270;73702;-69
2023/05/23 07:27:43;;;;;;;7.10;5.40;;;;;;;13.59;100.00;100707.43;106835;1270;61356;-69
2023/05/23 07:30:10;;;;;;;9.10;6.50;;;;;;;13.58;100.00;100708.58;106861;1269;60065;-69
2023/05/23 07:32:37;;;;;;;9.20;6.50;;;;;;;13.58;100.00;100711.65;106832;1270;74664;-69
2023/05/23 07:35:04;;;;;;;9.30;6.70;;;;;;;13.59;100.00;100709.44;106823;1270;69491;-69
2023/05/23 07:37:31;;;;;;;7.00;5.00;;;;;;;13.62;100.00;100717.63;106644;1271;71851;-69
2023/05/23 07:39:57;;;;;;;5.90;4.20;;;;;;;13.62;100.00;100719.64;107297;1270;59400;-69
2023/05/23 07:42:24;;;;;;;5.70;3.50;;;;;;;13.62;100.00;100720.57;107033;1270;61266;-69
2023/05/23 07:44:50;;;;;;;4.00;3.30;;;;;;;13.57;100.00;100728.17;107610;1270;72973;-69
2023/05/23 07:47:17;;;;;;;7.80;4.00;;;;;;;13.51;100.00;100722.42;107438;1270;59661;-69
2023/05/23 07:49:44;;;;;;;10.20;4.70;;;;;;;13.53;100.00;100722.81;107433;1270;72802;-70
2023/05/23 07:52:10;;;;;;;6.60;4.20;;;;;;;13.51;100.00;100726.86;107443;1270;62044;-69
2023/05/23 07:54:37;;;;;;;6.10;4.40;;;;;;;13.48;100.00;100735.11;107521;1270;60597;-69
2023/05/23 07:57:06;;;;;;;5.70;4.00;;;;;;;13.48;100.00;100734.41;107459;1270;59376;-68
2023/05/23 07:59:32;;;;;;;6.20;4.30;;;;;;;13.47;100.00;100733.30;107313;1270;70031;-69
2023/05/23 08:01:59;;;;;;;5.80;4.00;;;;;;;13.46;100.00;100745.67;107512;1270;72965;-69
2023/05/23 08:04:27;;;;;;;4.80;3.30;;;;;;;13.43;100.00;100740.88;107431;1270;61126;-69
2023/05/23 08:06:54;;;;;;;5.30;4.20;;;;;;;13.32;100.00;100753.09;107472;1270;59126;-68
2023/05/23 08:09:23;;;;;;;6.20;4.20;;;;;;;13.30;100.00;100743.04;107495;1270;74665;-68
2023/05/23 08:11:50;;;;;;;5.20;4.00;;;;;;;13.26;100.00;100748.66;107356;1270;59405;-68
2023/05/23 08:14:17;;;;;;;5.00;4.00;;;;;;;13.21;100.00;100754.40;107440;1270;72784;-68
2023/05/23 08:16:43;;;;;;;8.60;5.80;;;;;;;13.14;100.00;100763.67;107458;1270;60534;-68
2023/05/23 08:19:10;;;;;;;8.50;6.20;;;;;;;13.04;100.00;100764.27;107453;1270;59139;-67
2023/05/23 08:21:37;;;;;;;8.90;6.90;;;;;;;13.02;100.00;100769.55;107542;1270;73511;-67
2023/05/23 08:24:03;;;;;;;9.00;7.70;;;;;;;12.95;100.00;100768.61;105165;1270;3080731;-68
2023/05/23 08:26:33;;;;;;;10.50;7.80;;;;;;;12.94;100.00;100770.89;107247;1270;72165;-68
2023/05/23 08:29:01;;;;;;;12.10;7.90;;;;;;;12.95;100.00;100768.44;107278;1270;62394;-69
2023/05/23 08:31:28;;;;;;;10.80;7.70;;;;;;;12.97;100.00;100771.42;107510;1270;60456;-68
2023/05/23 08:33:56;;;;;;;13.10;7.30;;;;;;;13.00;100.00;100772.25;107526;1270;74713;-69
2023/05/23 08:36:22;;;;;;;12.00;7.40;;;;;;;13.02;100.00;100774.52;107475;1270;70100;-69
2023/05/23 08:38:51;;;;;;;10.50;7.10;;;;;;;13.00;100.00;100787.30;107494;1270;73265;-69
2023/05/23 08:41:22;;;;;;;10.20;7.40;;;;;;;12.94;100.00;100790.79;107480;1269;62015;-69
2023/05/23 08:43:49;;;;;;;11.90;8.20;;;;;;;12.94;100.00;100784.90;107476;1269;61483;-68
2023/05/23 08:46:16;;;;;;;12.50;8.50;;;;;;;12.96;100.00;100787.84;107476;1269;74744;-69
2023/05/23 08:48:49;;;;;;;15.40;8.70;;;;;;;12.96;100.00;100792.53;106987;1270;68696;-68
2023/05/23 08:51:16;;;;;;;12.00;8.00;;;;;;;12.92;100.00;100808.80;107515;1270;73297;-68
2023/05/23 08:53:47;;;;;;;10.40;6.70;;;;;;;12.94;100.00;100810.46;107436;1270;62149;-68
2023/05/23 08:56:18;;;;;;;9.90;6.80;;;;;;;12.93;100.00;100808.31;107525;1270;59452;-69
2023/05/23 08:58:49;;;;;;;13.20;8.10;;;;;;;12.93;100.00;100806.12;107449;1269;74708;-69
2023/05/23 09:01:19;;;;;;;11.90;7.90;;;;;;;12.97;100.00;100807.71;107283;1270;70607;-69
2023/05/23 09:03:47;;;;;;;12.10;8.30;;;;;;;13.01;100.00;100815.41;107160;1270;71590;-69
2023/05/23 09:06:13;;;;;;;13.40;8.60;;;;;;;12.97;100.00;100833.02;107484;1270;60817;-67
2023/05/23 09:08:40;;;;;;;12.80;8.00;;;;;;;12.99;100.00;100828.45;107512;1270;59998;-68
2023/05/23 09:11:07;;;;;;;12.80;8.30;;;;;;;12.96;100.00;100834.37;107530;1270;73949;-67
2023/05/23 09:13:34;;;;;;;16.10;8.60;;;;;;;12.94;100.00;100842.48;107551;1270;69981;-67
2023/05/23 09:16:02;;;;;;;14.60;9.10;;;;;;;12.92;100.00;100846.93;107454;1270;59123;-69
2023/05/23 09:18:34;;;;;;;22.50;11.10;;;;;;;12.91;100.00;100851.06;107293;1270;60353;-68
2023/05/23 09:21:01;;;;;;;30.70;12.60;;;;;;;12.85;100.00;100862.46;107534;1270;59848;-67
2023/05/23 09:23:32;;;;;;;19.50;11.20;;;;;;;12.77;100.00;100863.06;107368;1270;72618;-68
2023/05/23 09:26:02;;;;;;;19.90;10.10;;;;;;;12.70;100.00;100864.52;107339;1270;72567;-68
2023/05/23 09:28:29;;;;;;;15.90;10.20;;;;;;;12.63;100.00;100872.75;107490;1269;70837;-69
2023/05/23 09:31:07;;;;;;;26.70;11.20;;;;;;;12.54;100.00;100876.88;107533;1269;61354;-67
2023/05/23 09:33:45;;;;;;;22.40;11.60;;;;;;;12.52;100.00;100874.27;107527;1270;60797;-69
2023/05/23 09:36:13;;;;;;;19.80;10.10;;;;;;;12.50;100.00;100879.52;107316;1270;74796;-68
2023/05/23 09:38:41;;;;;;;20.00;9.60;;;;;;;12.50;100.00;100884.66;107135;1271;72341;-69
2023/05/23 09:41:10;;;;;;;13.40;8.00;;;;;;;12.46;100.00;100885.65;107309;1275;72777;-67
2023/05/23 09:43:57;;;;;;;21.30;9.40;;;;;;;12.47;100.00;100885.70;107482;1270;61266;-69
2023/05/23 09:46:27;;;;;;;29.80;11.00;;;;;;;12.41;100.00;100899.80;107553;1270;59325;-67
2023/05/23 09:48:55;;;;;;;18.80;9.10;;;;;;;12.37;100.00;100890.95;107281;1270;73196;-70
2023/05/23 09:51:22;;;;;;;14.00;7.60;;;;;;;12.35;100.00;100897.92;107536;1270;69920;-67
2023/05/23 09:53:49;;;;;;;12.50;6.00;;;;;;;12.31;100.00;100905.31;107443;1270;72361;-69
2023/05/23 09:56:17;;;;;;;12.20;5.60;;;;;;;12.30;100.00;100905.86;107278;1270;62120;-68
2023/05/23 09:58:48;;;;;;;13.70;6.10;;;;;;;12.29;100.00;100906.66;107465;1270;60409;-67
2023/05/23 10:01:15;;;;;;;10.90;5.40;;;;;;;12.33;100.00;100911.71;107196;1270;75445;-67
2023/05/23 10:03:50;;;;;;;7.30;4.70;;;;;;;12.35;100.00;100918.91;107501;1270;71319;-68
2023/05/23 10:06:59;;;;;;;8.40;4.70;;;;;;;12.35;100.00;100928.08;107490;1270;72857;-68
2023/05/23 10:09:31;;;;;;;6.60;4.00;;;;;;;12.34;100.00;100945.38;107435;1270;60818;-67
2023/05/23 10:12:17;;;;;;;9.40;4.30;;;;;;;12.40;100.00;100925.74;107523;1269;60405;-66
2023/05/23 10:14:48;;;;;;;11.20;4.90;;;;;;;12.41;100.00;100927.07;107527;1270;73577;-67
2023/05/23 10:17:40;;;;;;;10.60;4.40;;;;;;;12.42;100.00;100939.27;107469;1270;71806;-67
2023/05/23 10:20:13;;;;;;;8.40;4.20;;;;;;;12.40;100.00;100937.08;107357;1270;71343;-67
2023/05/23 10:22:41;;;;;;;10.10;4.10;;;;;;;12.39;100.00;100940.35;107520;1270;62363;-64
2023/05/23 10:25:11;;;;;;;8.10;4.30;;;;;;;12.41;100.00;100942.09;107504;1270;59269;-67
2023/05/23 10:27:38;;;;;;;7.60;3.40;;;;;;;12.44;100.00;100943.33;107270;1271;74138;-68
2023/05/23 10:30:07;;;;;;;8.00;3.20;;;;;;;12.46;100.00;100946.80;107473;1270;72262;-67
2023/05/23 10:32:36;;;;;;;5.80;2.70;;;;;;;12.46;100.00;100953.34;107482;1270;72631;-65
2023/05/23 10:35:08;;;;;;;5.70;2.40;;;;;;;12.46;100.00;100953.14;107383;1270;60522;-65
2023/05/23 10:37:44;;;;;;;4.80;2.30;;;;;;;12.47;100.00;100952.62;107529;1270;59399;-68
2023/05/23 10:40:23;;;;;;;3.80;1.90;;;;;;;12.46;99.70;100971.27;107525;1270;75876;-69
2023/05/23 10:43:09;;;;;;;5.40;2.20;;;;;;;12.52;99.84;100969.20;107472;1270;70000;-68
2023/05/23 10:45:42;;;;;;;6.40;2.30;;;;;;;12.54;99.65;100975.73;107482;1270;73249;-66
2023/05/23 10:48:31;;;;;;;4.30;2.30;;;;;;;12.55;99.60;100975.02;107512;1273;61714;-65
2023/05/23 10:51:05;;;;;;;6.30;2.70;;;;;;;12.57;99.78;100979.80;107294;1270;59577;-66
2023/05/23 10:53:38;;;;;;;6.10;2.80;;;;;;;12.50;99.12;100996.35;107507;1270;73491;-66
2023/05/23 10:56:09;;;;;;;4.90;2.50;;;;;;;12.43;99.47;100997.79;107556;1270;70052;-65
2023/05/23 10:58:38;;;;;;;6.60;2.60;;;;;;;12.37;99.98;100986.27;107495;1270;71493;-66
2023/05/23 11:01:07;;;;;;;7.40;3.20;;;;;;;12.32;99.77;100992.25;107521;1270;60826;-66
2023/05/23 11:03:36;;;;;;;6.00;2.80;;;;;;;12.32;99.66;100991.80;107432;1270;61210;-64
2023/05/23 11:06:05;;;;;;;8.00;3.40;;;;;;;12.28;98.98;101007.65;107520;1270;74037;-67